createdAt,value
2018-09-01T00:02:06.823Z,10.83
2018-09-01T00:05:10.481Z,11.27
2018-09-01T00:08:13.600Z,10.83
2018-09-01T00:11:17.077Z,10.67
2018-09-01T00:14:20.230Z,10.87
2018-09-01T00:17:28.884Z,11.07
2018-09-01T00:20:32.168Z,10.57
2018-09-01T00:23:36.513Z,10.43
2018-09-01T00:26:41.751Z,10.73
2018-09-01T00:29:45.020Z,9.67
2018-09-01T00:32:48.205Z,9.70
2018-09-01T00:35:51.647Z,10.13
2018-09-01T00:39:00.203Z,11.90
2018-09-01T00:42:03.417Z,11.20
2018-09-01T00:45:06.652Z,11.50
2018-09-01T00:48:10.480Z,11.90
2018-09-01T00:51:20.745Z,11.57
2018-09-01T00:54:24.018Z,11.67
2018-09-01T00:57:27.311Z,10.97
2018-09-01T01:00:30.615Z,11.40
2018-09-01T01:03:33.902Z,11.23
2018-09-01T01:06:37.186Z,11.50
2018-09-01T01:09:43.622Z,10.20
2018-09-01T01:12:47.903Z,10.63
2018-09-01T01:15:51.183Z,11.67
2018-09-01T01:18:57.959Z,11.27
2018-09-01T01:22:01.252Z,11.50
2018-09-01T01:25:05.112Z,11.07
2018-09-01T01:28:08.459Z,10.33
2018-09-01T01:31:12.756Z,10.57
2018-09-01T01:34:15.982Z,10.50
2018-09-01T01:37:19.375Z,10.83
2018-09-01T01:40:22.594Z,10.57
2018-09-01T01:43:25.888Z,10.83
2018-09-01T01:46:29.040Z,10.40
2018-09-01T01:49:32.338Z,10.53
2018-09-01T01:52:35.599Z,10.40
2018-09-01T01:55:38.937Z,11.20
2018-09-01T01:58:43.182Z,10.27
2018-09-01T02:01:46.555Z,10.03
2018-09-01T02:04:51.849Z,9.97
2018-09-01T02:07:55.118Z,9.43
2018-09-01T02:10:59.441Z,9.73
2018-09-01T02:14:02.650Z,10.33
2018-09-01T02:17:05.965Z,9.93
2018-09-01T02:20:09.280Z,8.80
2018-09-01T02:23:13.072Z,9.67
2018-09-01T02:26:16.346Z,9.37
2018-09-01T02:29:19.719Z,9.07
2018-09-01T02:32:23.071Z,9.50
2018-09-01T02:35:26.354Z,9.30
2018-09-01T02:38:30.685Z,9.50
2018-09-01T02:41:34.005Z,9.27
2018-09-01T02:44:37.263Z,9.27
2018-09-01T02:47:41.628Z,9.00
2018-09-01T02:50:44.807Z,8.40
2018-09-01T02:53:52.277Z,9.17
2018-09-01T02:56:55.569Z,8.53
2018-09-01T02:59:58.876Z,9.07
2018-09-01T03:03:02.009Z,8.63
2018-09-01T03:06:07.298Z,8.97
2018-09-01T03:09:11.426Z,8.47
2018-09-01T03:12:14.712Z,9.07
2018-09-01T03:15:17.916Z,9.30
2018-09-01T03:18:22.223Z,9.40
2018-09-01T03:21:25.435Z,9.47
2018-09-01T03:24:30.774Z,8.20
2018-09-01T03:27:33.959Z,7.93
2018-09-01T03:30:41.456Z,8.60
2018-09-01T03:33:44.650Z,7.93
2018-09-01T03:36:47.990Z,7.93
2018-09-01T03:39:51.338Z,7.63
2018-09-01T03:42:54.716Z,7.97
2018-09-01T03:45:57.964Z,7.83
2018-09-01T03:49:02.320Z,7.97
2018-09-01T03:52:05.693Z,8.07
2018-09-01T03:55:08.964Z,7.03
2018-09-01T03:58:13.232Z,7.20
2018-09-01T04:01:16.474Z,7.70
2018-09-01T04:04:19.831Z,7.73
2018-09-01T04:07:23.074Z,6.97
2018-09-01T04:10:26.400Z,7.53
2018-09-01T04:13:29.687Z,6.40
2018-09-01T04:16:33.049Z,6.70
2018-09-01T04:19:43.184Z,7.10
2018-09-01T04:22:46.681Z,6.40
2018-09-01T04:25:49.935Z,5.97
2018-09-01T04:28:53.222Z,5.70
2018-09-01T04:31:56.608Z,5.77
2018-09-01T04:34:59.815Z,5.10
2018-09-01T04:38:03.145Z,6.10
2018-09-01T04:41:06.433Z,6.43
2018-09-01T04:44:10.669Z,5.90
2018-09-01T04:47:13.955Z,6.03
2018-09-01T04:50:17.256Z,5.50
2018-09-01T04:53:20.545Z,5.30
2018-09-01T04:56:23.820Z,5.50
2018-09-01T04:59:28.142Z,5.30
2018-09-01T05:02:31.314Z,4.40
2018-09-01T05:05:34.676Z,4.80
2018-09-01T05:08:37.951Z,5.20
2018-09-01T05:11:41.987Z,4.80
2018-09-01T05:14:45.147Z,5.03
2018-09-01T05:17:48.520Z,4.70
2018-09-01T05:20:52.813Z,5.27
2018-09-01T05:23:56.084Z,4.77
2018-09-01T05:26:59.395Z,5.33
2018-09-01T05:30:02.755Z,5.23
2018-09-01T05:33:05.887Z,5.03
2018-09-01T05:36:09.286Z,4.67
2018-09-01T05:39:13.290Z,4.63
2018-09-01T05:42:16.499Z,4.23
2018-09-01T05:45:19.807Z,4.67
2018-09-01T05:48:23.234Z,4.90
2018-09-01T05:51:26.504Z,5.00
2018-09-01T05:54:29.905Z,4.63
2018-09-01T05:57:33.162Z,4.50
2018-09-01T06:00:37.674Z,4.37
2018-09-01T06:03:41.606Z,4.30
2018-09-01T06:06:44.802Z,4.10
2018-09-01T06:09:48.215Z,4.17
2018-09-01T06:12:51.499Z,4.13
2018-09-01T06:15:54.823Z,3.97
2018-09-01T06:18:58.091Z,3.77
2018-09-01T06:22:01.286Z,4.10
2018-09-01T06:25:04.920Z,3.80
2018-09-01T06:28:15.304Z,4.60
2018-09-01T06:31:19.526Z,3.80
2018-09-01T06:34:22.840Z,3.67
2018-09-01T06:37:26.133Z,3.40
2018-09-01T06:40:29.387Z,4.30
2018-09-01T06:43:32.550Z,4.03
2018-09-01T06:46:35.863Z,4.10
2018-09-01T06:49:39.077Z,4.20
2018-09-01T06:52:43.355Z,4.07
2018-09-01T06:55:46.692Z,4.10
2018-09-01T06:58:50.371Z,3.50
2018-09-01T07:01:53.748Z,3.70
2018-09-01T07:04:56.999Z,3.50
2018-09-01T07:08:00.299Z,3.17
2018-09-01T07:11:03.644Z,3.50
2018-09-01T07:14:06.987Z,3.30
2018-09-01T07:17:10.749Z,3.20
2018-09-01T07:20:13.987Z,3.67
2018-09-01T07:23:17.163Z,3.47
2018-09-01T07:26:20.369Z,3.20
2018-09-01T07:29:23.622Z,3.50
2018-09-01T07:32:26.887Z,3.17
2018-09-01T07:35:30.168Z,3.40
2018-09-01T07:38:33.554Z,3.30
2018-09-01T07:41:37.107Z,3.47
2018-09-01T07:44:40.814Z,3.00
2018-09-01T07:47:44.062Z,3.23
2018-09-01T07:50:48.271Z,2.90
2018-09-01T07:53:52.524Z,3.23
2018-09-01T07:56:56.829Z,3.20
2018-09-01T08:00:00.167Z,3.17
2018-09-01T08:03:03.355Z,3.20
2018-09-01T08:06:06.624Z,3.40
2018-09-01T08:09:11.865Z,2.73
2018-09-01T08:12:15.163Z,3.40
2018-09-01T08:15:19.499Z,3.50
2018-09-01T08:18:22.783Z,2.50
2018-09-01T08:21:26.092Z,2.77
2018-09-01T08:24:30.392Z,2.70
2018-09-01T08:27:36.007Z,2.57
2018-09-01T08:30:39.276Z,2.70
2018-09-01T08:33:43.723Z,2.70
2018-09-01T08:36:47.436Z,2.40
2018-09-01T08:39:50.675Z,2.40
2018-09-01T08:42:53.878Z,2.67
2018-09-01T08:45:57.167Z,2.67
2018-09-01T08:49:00.480Z,2.87
2018-09-01T08:52:03.780Z,3.00
2018-09-01T08:55:06.907Z,2.57
2018-09-01T08:58:13.868Z,2.97
2018-09-01T09:01:17.036Z,2.80
2018-09-01T09:04:20.347Z,2.40
2018-09-01T09:07:23.556Z,2.30
2018-09-01T09:10:26.978Z,2.23
2018-09-01T09:13:30.513Z,2.57
2018-09-01T09:16:33.719Z,2.50
2018-09-01T09:19:36.912Z,2.83
2018-09-01T09:22:41.292Z,2.73
2018-09-01T09:25:44.551Z,2.70
2018-09-01T09:28:47.971Z,2.63
2018-09-01T09:31:51.268Z,3.03
2018-09-01T09:34:55.580Z,2.30
2018-09-01T09:37:58.979Z,2.17
2018-09-01T09:41:02.101Z,2.70
2018-09-01T09:44:05.480Z,2.37
2018-09-01T09:47:08.763Z,1.93
2018-09-01T09:50:12.587Z,2.23
2018-09-01T09:53:15.745Z,2.77
2018-09-01T09:56:19.052Z,2.20
2018-09-01T09:59:22.357Z,2.27
2018-09-01T10:02:25.609Z,2.70
2018-09-01T10:05:29.005Z,2.10
2018-09-01T10:08:32.263Z,2.23
2018-09-01T10:11:35.492Z,2.30
2018-09-01T10:14:38.745Z,2.13
2018-09-01T10:17:42.069Z,2.07
2018-09-01T10:20:45.231Z,2.27
2018-09-01T10:23:49.705Z,2.10
2018-09-01T10:26:54.128Z,1.90
2018-09-01T10:29:57.380Z,2.03
2018-09-01T10:33:00.752Z,2.00
2018-09-01T10:36:03.988Z,2.40
2018-09-01T10:39:09.375Z,2.17
2018-09-01T10:42:12.531Z,2.40
2018-09-01T10:45:15.823Z,1.60
2018-09-01T10:48:19.263Z,2.10
2018-09-01T10:51:23.094Z,2.00
2018-09-01T10:54:26.201Z,2.07
2018-09-01T10:57:29.559Z,1.80
2018-09-01T11:00:32.856Z,1.70
2018-09-01T11:03:36.168Z,1.97
2018-09-01T11:06:39.400Z,1.83
2018-09-01T11:09:42.623Z,1.80
2018-09-01T11:12:46.980Z,1.83
2018-09-01T11:15:50.329Z,1.53
2018-09-01T11:18:54.645Z,1.77
2018-09-01T11:21:57.868Z,1.70
2018-09-01T11:25:01.165Z,2.10
2018-09-01T11:28:04.718Z,1.80
2018-09-01T11:31:08.181Z,1.70
2018-09-01T11:34:11.498Z,1.90
2018-09-01T11:37:14.756Z,1.67
2018-09-01T11:40:18.125Z,1.93
2018-09-01T11:43:23.021Z,1.77
2018-09-01T11:46:26.284Z,1.70
2018-09-01T11:49:29.578Z,1.50
2018-09-01T11:52:32.887Z,1.50
2018-09-01T11:55:37.244Z,2.00
2018-09-01T11:58:40.661Z,2.00
2018-09-01T12:01:43.921Z,1.77
2018-09-01T12:04:47.205Z,1.80
2018-09-01T12:07:50.490Z,1.80
2018-09-01T12:10:54.921Z,1.63
2018-09-01T12:13:58.090Z,1.87
2018-09-01T12:17:01.435Z,1.67
2018-09-01T12:20:04.772Z,1.93
2018-09-01T12:23:08.137Z,1.67
2018-09-01T12:26:11.324Z,1.80
2018-09-01T12:29:14.620Z,1.93
2018-09-01T12:32:17.898Z,1.80
2018-09-01T12:35:21.268Z,1.90
2018-09-01T12:38:25.187Z,1.63
2018-09-01T12:41:28.480Z,1.73
2018-09-01T12:44:31.800Z,1.90
2018-09-01T12:47:35.130Z,1.70
2018-09-01T12:50:38.267Z,1.40
2018-09-01T12:53:41.640Z,1.47
2018-09-01T12:56:45.919Z,1.50
2018-09-01T12:59:49.304Z,2.00
2018-09-01T13:02:52.588Z,1.67
2018-09-01T13:05:55.889Z,1.73
2018-09-01T13:08:59.110Z,1.50
2018-09-01T13:12:02.440Z,1.70
2018-09-01T13:15:05.702Z,1.60
2018-09-01T13:18:08.986Z,1.67
2018-09-01T13:21:12.142Z,2.73
2018-09-01T13:24:15.386Z,1.53
2018-09-01T13:27:18.639Z,1.40
2018-09-01T13:30:21.986Z,1.60
2018-09-01T13:33:26.229Z,1.50
2018-09-01T13:36:30.575Z,1.43
2018-09-01T13:39:33.822Z,1.50
2018-09-01T13:42:37.149Z,1.33
2018-09-01T13:45:41.469Z,1.57
2018-09-01T13:48:44.743Z,1.47
2018-09-01T13:51:48.068Z,1.40
2018-09-01T13:54:52.999Z,1.37
2018-09-01T13:57:56.301Z,1.43
2018-09-01T14:00:59.481Z,1.43
2018-09-01T14:04:02.967Z,1.60
2018-09-01T14:07:06.494Z,1.60
2018-09-01T14:10:09.790Z,1.50
2018-09-01T14:13:13.087Z,1.30
2018-09-01T14:16:16.383Z,1.40
2018-09-01T14:19:19.681Z,1.30
2018-09-01T14:22:24.706Z,1.30
2018-09-01T14:25:28.764Z,1.40
2018-09-01T14:28:32.116Z,1.50
2018-09-01T14:31:35.564Z,1.40
2018-09-01T14:34:38.831Z,1.43
2018-09-01T14:37:42.136Z,1.50
2018-09-01T14:40:45.384Z,1.40
2018-09-01T14:43:48.712Z,1.33
2018-09-01T14:46:52.032Z,1.20
2018-09-01T14:49:56.637Z,1.63
2018-09-01T14:53:00.030Z,1.80
2018-09-01T14:56:03.327Z,1.50
2018-09-01T14:59:07.694Z,1.27
2018-09-01T15:02:13.016Z,1.20
2018-09-01T15:05:16.447Z,1.27
2018-09-01T15:08:19.949Z,1.47
2018-09-01T15:11:24.246Z,1.40
2018-09-01T15:14:27.599Z,1.40
2018-09-01T15:17:31.003Z,1.40
2018-09-01T15:20:34.325Z,1.23
2018-09-01T15:23:37.771Z,1.67
2018-09-01T15:26:41.147Z,1.50
2018-09-01T15:29:44.451Z,1.30
2018-09-01T15:32:47.714Z,1.63
2018-09-01T15:35:51.011Z,1.50
2018-09-01T15:38:55.314Z,1.50
2018-09-01T15:41:58.651Z,1.50
2018-09-01T15:45:02.126Z,1.37
2018-09-01T15:48:05.423Z,1.70
2018-09-01T15:51:08.591Z,1.30
2018-09-01T15:54:11.927Z,1.17
2018-09-01T15:57:15.196Z,1.33
2018-09-01T16:00:18.549Z,1.43
2018-09-01T16:03:22.069Z,1.50
2018-09-01T16:06:25.349Z,1.43
2018-09-01T16:09:28.706Z,1.33
2018-09-01T16:12:33.031Z,1.30
2018-09-01T16:15:36.334Z,1.00
2018-09-01T16:18:40.680Z,1.57
2018-09-01T16:21:43.859Z,1.57
2018-09-01T16:24:47.148Z,1.30
2018-09-01T16:27:50.480Z,1.27
2018-09-01T16:30:54.580Z,1.30
2018-09-01T16:33:57.847Z,1.30
2018-09-01T16:37:03.364Z,1.27
2018-09-01T16:40:06.829Z,1.40
2018-09-01T16:43:11.050Z,1.60
2018-09-01T16:46:14.436Z,1.30
2018-09-01T16:49:17.800Z,1.60
2018-09-01T16:52:21.153Z,1.30
2018-09-01T16:55:24.427Z,1.27
2018-09-01T16:58:27.629Z,1.50
2018-09-01T17:01:30.952Z,1.53
2018-09-01T17:04:35.311Z,1.60
2018-09-01T17:07:38.525Z,1.30
2018-09-01T17:10:41.842Z,1.30
2018-09-01T17:13:46.490Z,1.43
2018-09-01T17:16:49.870Z,1.30
2018-09-01T17:19:53.245Z,1.50
2018-09-01T17:22:56.388Z,1.37
2018-09-01T17:25:59.652Z,1.40
2018-09-01T17:29:02.964Z,1.47
2018-09-01T17:32:06.450Z,1.37
2018-09-01T17:35:09.751Z,1.47
2018-09-01T17:38:13.056Z,1.60
2018-09-01T17:41:16.601Z,1.90
2018-09-01T17:44:21.197Z,1.97
2018-09-01T17:47:24.497Z,1.63
2018-09-01T17:50:27.768Z,1.63
2018-09-01T17:53:30.928Z,1.50
2018-09-01T17:56:34.545Z,1.47
2018-09-01T17:59:37.795Z,1.53
2018-09-01T18:02:41.202Z,1.90
2018-09-01T18:05:44.457Z,1.50
2018-09-01T18:08:47.804Z,1.67
2018-09-01T18:11:51.131Z,2.40
2018-09-01T18:14:54.360Z,2.33
2018-09-01T18:17:57.679Z,2.40
2018-09-01T18:21:01.300Z,1.70
2018-09-01T18:24:05.513Z,1.97
2018-09-01T18:27:08.883Z,1.83
2018-09-01T18:30:12.073Z,2.17
2018-09-01T18:33:15.595Z,2.70
2018-09-01T18:36:18.893Z,2.67
2018-09-01T18:39:22.159Z,2.50
2018-09-01T18:42:25.495Z,1.87
2018-09-01T18:45:28.659Z,2.00
2018-09-01T18:48:31.964Z,2.10
2018-09-01T18:51:35.168Z,2.40
2018-09-01T18:54:38.475Z,3.00
2018-09-01T18:57:42.860Z,3.10
2018-09-01T19:00:46.183Z,2.97
2018-09-01T19:03:49.315Z,1.90
2018-09-01T19:06:52.560Z,2.10
2018-09-01T19:09:55.884Z,1.70
2018-09-01T19:12:59.168Z,1.90
2018-09-01T19:16:02.449Z,1.40
2018-09-01T19:19:05.775Z,1.80
2018-09-01T19:22:09.793Z,1.77
2018-09-01T19:25:15.124Z,1.60
2018-09-01T19:28:20.251Z,1.73
2018-09-01T19:31:23.559Z,1.80
2018-09-01T19:34:26.757Z,1.80
2018-09-01T19:37:30.100Z,2.40
2018-09-01T19:40:33.403Z,2.10
2018-09-01T19:43:36.631Z,2.33
2018-09-01T19:46:40.807Z,2.20
2018-09-01T19:49:44.101Z,2.77
2018-09-01T19:52:47.448Z,2.70
2018-09-01T19:55:50.747Z,2.70
2018-09-01T19:58:54.076Z,2.30
2018-09-01T20:01:57.351Z,2.60
2018-09-01T20:05:00.695Z,2.40
2018-09-01T20:08:03.836Z,2.03
2018-09-01T20:11:08.121Z,1.73
2018-09-01T20:14:11.861Z,1.90
2018-09-01T20:17:15.190Z,1.90
2018-09-01T20:20:18.468Z,1.90
2018-09-01T20:23:21.757Z,2.20
2018-09-01T20:26:25.036Z,2.10
2018-09-01T20:29:28.380Z,2.30
2018-09-01T20:32:31.649Z,2.30
2018-09-01T20:35:40.453Z,2.30
2018-09-01T20:38:43.988Z,2.83
2018-09-01T20:41:47.269Z,3.17
2018-09-01T20:44:50.594Z,2.80
2018-09-01T20:47:53.900Z,3.10
2018-09-01T20:50:57.165Z,2.90
2018-09-01T20:54:01.494Z,2.60
2018-09-01T20:57:05.814Z,2.60
2018-09-01T21:00:09.103Z,2.73
2018-09-01T21:03:12.439Z,2.60
2018-09-01T21:06:15.707Z,2.30
2018-09-01T21:09:19.004Z,2.40
2018-09-01T21:12:22.332Z,2.70
2018-09-01T21:15:25.590Z,2.40
2018-09-01T21:18:28.793Z,2.57
2018-09-01T21:21:32.099Z,2.93
2018-09-01T21:24:35.394Z,2.53
2018-09-01T21:27:38.703Z,2.93
2018-09-01T21:30:42.319Z,3.03
2018-09-01T21:33:45.583Z,2.60
2018-09-01T21:36:52.198Z,3.00
2018-09-01T21:39:56.568Z,3.20
2018-09-01T21:43:00.087Z,2.77
2018-09-01T21:46:03.392Z,3.00
2018-09-01T21:49:07.806Z,2.90
2018-09-01T21:52:11.088Z,2.47
2018-09-01T21:55:14.312Z,3.00
2018-09-01T21:58:17.623Z,2.73
2018-09-01T22:01:26.254Z,2.50
2018-09-01T22:04:33.662Z,2.80
2018-09-01T22:07:36.910Z,2.53
2018-09-01T22:10:40.111Z,2.67
2018-09-01T22:13:43.423Z,2.70
2018-09-01T22:16:46.700Z,2.60
2018-09-01T22:19:50.529Z,2.23
2018-09-01T22:22:53.703Z,2.53
2018-09-01T22:25:57.012Z,2.63
2018-09-01T22:29:00.411Z,2.50
2018-09-01T22:32:03.687Z,2.50
2018-09-01T22:35:07.732Z,2.60
2018-09-01T22:38:10.983Z,2.60
2018-09-01T22:41:14.317Z,2.57
2018-09-01T22:44:17.813Z,2.80
2018-09-01T22:47:23.900Z,2.77
2018-09-01T22:50:27.175Z,2.70
2018-09-01T22:53:30.323Z,3.30
2018-09-01T22:56:33.555Z,2.83
2018-09-01T22:59:37.298Z,2.53
2018-09-01T23:02:40.561Z,2.60
2018-09-01T23:05:43.863Z,3.03
2018-09-01T23:08:47.281Z,3.27
2018-09-01T23:11:50.785Z,2.97
2018-09-01T23:14:54.090Z,3.00
2018-09-01T23:17:57.384Z,2.90
2018-09-01T23:21:00.644Z,2.73
2018-09-01T23:24:03.980Z,3.07
2018-09-01T23:27:07.272Z,2.87
2018-09-01T23:30:11.570Z,2.67
2018-09-01T23:33:14.869Z,2.90
2018-09-01T23:36:18.503Z,2.90
2018-09-01T23:39:21.791Z,2.43
2018-09-01T23:42:25.121Z,2.73
2018-09-01T23:45:28.355Z,3.07
2018-09-01T23:48:31.692Z,2.50
2018-09-01T23:51:35.200Z,2.60
2018-09-01T23:54:39.488Z,2.43
2018-09-01T23:57:42.794Z,2.40
